Terminal Aerodrome Forecast
Issued by NWS

Home | Current Version | Previous Version | Graphics & Text | Print | Product List | Glossary On
Versions: 1 2 3 4 5 6 7 8 9 10 11 12 13 14 15 16 17
480
FTUS45 KGGW 162320
TAFSDY
TAF
KSDY 162320Z 1700/1724 13023G31KT P6SM SCT200
     FM170400 13013KT P6SM SCT150 WS020/14045KT
     FM170700 13011KT P6SM BKN110
     FM171800 12008KT P6SM -SHRA OVC015
     FM172000 21006KT 6SM -SHRA OVC010
     FM172100 27006KT P6SM -SHRA OVC010=

USA.gov is the U.S. government's official web portal to all federal, state and local government web resources and services.